Time;durP1;ratioP1;P1;durP2;ratioP2;P2;SDS_P1;SDS_P2;PMS_P1;PMS_P2;Temp;Humidity;BMP_temperature;BMP_pressure;BME280_temperature;BME280_humidity;BME280_pressure;Samples;Min_cycle;Max_cycle;Signal;HPM_P1;HPM_P2
2022/12/19 00:01:15;;;;;;;;;41.50;37.00;;;;;4.96;84.92;100974.88;5034969;28;45283;-69
2022/12/19 00:03:44;;;;;;;;;43.25;38.00;;;;;4.96;84.75;100971.38;5037575;28;45334;-68
2022/12/19 00:06:09;;;;;;;;;45.25;39.50;;;;;4.93;85.04;100964.47;5037900;28;45611;-66
2022/12/19 00:08:35;;;;;;;;;41.00;36.75;;;;;4.97;84.92;100973.97;5037484;28;47240;-68
2022/12/19 00:11:01;;;;;;;;;43.50;39.25;;;;;4.95;85.26;100965.31;5038153;28;45392;-69
2022/12/19 00:13:30;;;;;;;;;38.50;36.25;;;;;5.04;85.35;100979.13;5037687;28;45391;-68
2022/12/19 00:16:03;;;;;;;;;41.75;38.50;;;;;4.99;85.16;100965.28;5036685;28;45473;-67
2022/12/19 00:18:29;;;;;;;;;43.25;38.00;;;;;5.01;84.86;100964.38;5036833;28;45229;-67
2022/12/19 00:21:00;;;;;;;;;42.75;38.50;;;;;5.07;84.48;100969.50;5037159;28;45479;-69
2022/12/19 00:23:31;;;;;;;;;38.50;35.00;;;;;5.13;84.93;100968.59;5037283;28;45191;-69
2022/12/19 00:26:17;;;;;;;;;44.75;38.75;;;;;5.10;84.80;100956.44;5037483;28;45460;-65
2022/12/19 00:28:45;;;;;;;;;33.75;31.75;;;;;5.11;84.72;100954.72;5018971;28;47053;-69
2022/12/19 00:31:11;;;;;;;;;36.75;33.00;;;;;5.19;84.76;100959.81;5037139;28;45278;-68
2022/12/19 00:33:37;;;;;;;;;39.50;36.00;;;;;5.12;83.85;100949.47;5040632;28;45220;-69
2022/12/19 00:36:05;;;;;;;;;37.50;35.00;;;;;5.20;84.20;100954.59;5037568;28;45229;-69
2022/12/19 00:38:31;;;;;;;;;35.25;33.25;;;;;5.23;84.33;100956.28;5037250;28;45708;-69
2022/12/19 00:41:10;;;;;;;;;37.25;33.00;;;;;5.28;84.70;100957.09;5036428;28;45393;-71
2022/12/19 00:43:36;;;;;;;;;34.75;33.50;;;;;5.28;83.49;100953.66;5037074;28;45372;-66
2022/12/19 00:46:09;;;;;;;;;37.50;33.00;;;;;5.29;84.01;100950.16;5019125;28;45593;-66
2022/12/19 00:48:35;;;;;;;;;38.00;34.00;;;;;5.30;84.45;100944.94;5036778;28;45492;-68
2022/12/19 00:51:06;;;;;;;;;31.75;31.75;;;;;5.30;83.89;100931.88;5036387;28;45543;-69
2022/12/19 00:53:32;;;;;;;;;35.25;33.50;;;;;5.31;83.76;100931.00;5018739;28;45411;-68
2022/12/19 00:56:06;;;;;;;;;31.00;30.25;;;;;5.35;84.35;100929.22;5036734;28;45430;-69
2022/12/19 00:58:32;;;;;;;;;29.50;29.50;;;;;5.36;84.19;100923.97;5036469;28;45413;-68
2022/12/19 01:00:57;;;;;;;;;33.00;31.00;;;;;5.33;83.63;100910.97;5036067;28;45372;-67
2022/12/19 01:03:24;;;;;;;;;32.25;30.75;;;;;5.39;83.66;100921.34;5038951;28;45423;-68
2022/12/19 01:05:50;;;;;;;;;33.50;32.00;;;;;5.35;83.71;100905.72;5037001;28;45559;-69
2022/12/19 01:08:15;;;;;;;;;38.50;35.50;;;;;5.44;83.90;100915.19;5018204;28;47711;-68
2022/12/19 01:10:48;;;;;;;;;29.00;29.00;;;;;5.47;83.85;100915.16;5036313;28;45368;-68
2022/12/19 01:13:15;;;;;;;;;31.00;30.00;;;;;5.49;83.38;100913.38;5036403;28;45245;-69
2022/12/19 01:15:40;;;;;;;;;26.50;26.50;;;;;5.47;83.44;100915.16;5036617;28;45344;-69
2022/12/19 01:18:09;;;;;;;;;25.25;25.25;;;;;5.47;83.75;100916.00;5036065;28;45420;-69
2022/12/19 01:20:38;;;;;;;;;26.75;26.75;;;;;5.56;83.30;100928.06;5037784;28;45379;-69
2022/12/19 01:23:03;;;;;;;;;32.00;31.00;;;;;5.53;83.50;100920.28;5037446;28;45450;-68
2022/12/19 01:25:29;;;;;;;;;29.75;29.75;;;;;5.56;83.49;100925.47;5038157;28;45296;-68
2022/12/19 01:27:55;;;;;;;;;29.75;29.50;;;;;5.53;83.18;100922.88;5036377;28;45407;-70
2022/12/19 01:30:21;;;;;;;;;28.25;28.25;;;;;5.57;82.98;100921.97;5036195;28;45388;-68
2022/12/19 01:32:46;;;;;;;;;32.00;31.25;;;;;5.58;83.11;100930.63;5036302;28;45285;-67
2022/12/19 01:35:12;;;;;;;;;28.00;28.00;;;;;5.43;84.00;100898.66;5035793;28;45498;-67
2022/12/19 01:37:37;;;;;;;;;29.25;29.25;;;;;5.63;83.79;100921.88;5037936;28;46555;-67
2022/12/19 01:40:03;;;;;;;;;29.75;29.25;;;;;5.62;83.38;100922.75;5037347;28;46113;-68
2022/12/19 01:42:34;;;;;;;;;26.25;26.25;;;;;5.70;82.86;100930.47;5036922;28;45379;-67
2022/12/19 01:45:08;;;;;;;;;30.50;30.50;;;;;5.71;83.07;100932.19;5036140;28;45422;-69
2022/12/19 01:47:44;;;;;;;;;32.75;30.75;;;;;5.73;83.51;100922.59;5036013;28;46775;-67
2022/12/19 01:50:17;;;;;;;;;29.50;29.50;;;;;5.76;83.15;100914.72;5037141;28;45389;-69
2022/12/19 01:52:43;;;;;;;;;29.00;29.00;;;;;5.58;83.92;100881.06;5038806;28;45434;-71
2022/12/19 01:55:10;;;;;;;;;30.25;30.00;;;;;5.80;83.37;100921.63;5040977;28;45595;-69
2022/12/19 01:57:36;;;;;;;;;31.25;31.25;;;;;5.80;83.08;100908.56;5041200;28;46501;-70
2022/12/19 02:00:03;;;;;;;;;34.50;32.75;;;;;5.85;83.00;100926.78;5037887;28;45468;-68
2022/12/19 02:02:35;;;;;;;;;38.00;32.75;;;;;5.77;83.08;100911.22;5042838;28;45274;-68
2022/12/19 02:05:03;;;;;;;;;32.00;32.00;;;;;5.88;82.55;100929.34;5047093;28;45135;-68
2022/12/19 02:07:31;;;;;;;;;35.00;34.00;;;;;5.88;82.84;100924.13;5041972;28;45304;-69
2022/12/19 02:09:57;;;;;;;;;32.50;31.50;;;;;5.91;82.47;100931.91;5039671;28;45474;-69
2022/12/19 02:12:28;;;;;;;;;35.25;31.75;;;;;5.91;83.51;100926.69;5036155;28;45283;-67
2022/12/19 02:14:55;;;;;;;;;26.50;26.50;;;;;5.90;82.97;100919.75;5035851;28;45231;-68
2022/12/19 02:18:08;;;;;;;;;28.00;27.50;;;;;5.97;83.01;100930.97;5036377;28;45385;-68
2022/12/19 02:21:06;;;;;;;;;31.25;31.25;;;;;5.98;82.57;100930.94;4947983;28;45462;-69
2022/12/19 02:24:05;;;;;;;;;31.00;30.50;;;;;5.99;83.14;100927.44;5034555;28;45366;-69
2022/12/19 02:26:53;;;;;;;;;27.25;26.50;;;;;6.01;82.30;100927.44;5000999;28;45289;-70
2022/12/19 02:29:51;;;;;;;;;33.25;31.00;;;;;6.02;83.31;100926.56;5034881;28;46324;-68
2022/12/19 02:32:31;;;;;;;;;30.25;29.25;;;;;6.04;82.89;100926.53;5034987;28;45461;-69
2022/12/19 02:35:22;;;;;;;;;28.00;27.50;;;;;6.02;83.39;100934.41;5035423;28;45371;-69
2022/12/19 02:38:09;;;;;;;;;28.75;28.75;;;;;6.04;82.48;100934.34;5017547;28;45333;-67
2022/12/19 02:40:45;;;;;;;;;26.25;26.25;;;;;6.05;82.41;100936.97;5035429;28;46229;-68
2022/12/19 02:43:14;;;;;;;;;25.50;25.50;;;;;6.05;82.00;100936.97;5035274;28;45325;-69
2022/12/19 02:45:41;;;;;;;;;25.75;25.75;;;;;6.07;82.34;100934.31;5034829;28;45276;-68
2022/12/19 02:48:08;;;;;;;;;24.75;24.00;;;;;6.05;83.20;100928.25;5035002;28;45368;-71
2022/12/19 02:50:44;;;;;;;;;27.00;27.00;;;;;5.98;82.22;100914.41;5034901;28;46313;-69
2022/12/19 02:53:12;;;;;;;;;29.25;29.25;;;;;6.08;82.53;100929.06;5036070;28;45437;-68
2022/12/19 02:55:49;;;;;;;;;27.00;27.00;;;;;6.05;82.59;100913.47;5034709;28;45244;-68
2022/12/19 02:58:28;;;;;;;;;25.50;25.25;;;;;6.09;83.24;100916.88;5016747;28;45470;-68
2022/12/19 03:01:05;;;;;;;;;24.75;24.75;;;;;6.10;83.31;100919.47;5034387;28;46330;-68
2022/12/19 03:03:41;;;;;;;;;24.50;24.50;;;;;6.07;82.58;100909.06;5034953;28;45341;-68
2022/12/19 03:06:40;;;;;;;;;23.25;22.75;;;;;6.12;82.93;100925.53;5035225;28;45247;-68
2022/12/19 03:09:47;;;;;;;;;22.75;22.50;;;;;6.12;83.74;100925.53;5034420;28;45861;-68
2022/12/19 03:12:48;;;;;;;;;21.50;21.50;;;;;6.13;83.13;100923.75;4962855;28;45515;-68
2022/12/19 03:15:14;;;;;;;;;24.75;24.75;;;;;6.13;82.90;100913.31;5034416;28;45226;-68
2022/12/19 03:17:40;;;;;;;;;22.00;22.00;;;;;6.14;83.15;100908.09;5034662;28;45338;-67
2022/12/19 03:20:17;;;;;;;;;21.00;21.00;;;;;6.15;83.84;100914.16;5034369;28;45581;-67
2022/12/19 03:22:43;;;;;;;;;22.25;22.00;;;;;6.15;83.80;100919.38;5034200;28;45487;-68
2022/12/19 03:25:08;;;;;;;;;21.50;21.50;;;;;6.14;83.75;100909.81;5034255;28;45392;-67
2022/12/19 03:27:38;;;;;;;;;22.50;21.25;;;;;6.16;83.48;100910.66;5034624;28;45530;-68
2022/12/19 03:30:07;;;;;;;;;21.75;21.75;;;;;6.17;83.67;100915.00;5034765;28;45518;-69
2022/12/19 03:32:36;;;;;;;;;21.00;21.00;;;;;6.18;84.07;100911.50;5016339;28;45450;-68
2022/12/19 03:35:12;;;;;;;;;27.25;27.25;;;;;6.20;83.53;100912.31;5016581;28;45982;-68
2022/12/19 03:37:41;;;;;;;;;23.25;23.25;;;;;6.22;83.67;100909.69;5037611;28;45322;-66
2022/12/19 03:40:11;;;;;;;;;22.25;22.25;;;;;6.21;83.74;100902.75;5039246;28;45327;-68
2022/12/19 03:45:35;;;;;;;;;21.00;19.75;;;;;6.19;83.60;100888.84;5039332;28;45311;-69
2022/12/19 03:48:14;;;;;;;;;22.25;22.25;;;;;6.23;82.96;100886.16;5043268;28;45157;-70
2022/12/19 03:50:53;;;;;;;;;21.00;21.00;;;;;6.29;83.72;100896.50;5040810;28;45411;-67
2022/12/19 03:53:31;;;;;;;;;24.25;24.25;;;;;6.32;83.67;100894.72;5037490;28;45297;-67
2022/12/19 03:56:11;;;;;;;;;21.25;21.25;;;;;6.31;83.75;100901.72;5038646;28;45942;-70
2022/12/19 03:58:44;;;;;;;;;21.00;20.50;;;;;6.35;84.10;100900.75;5039514;28;45442;-67
2022/12/19 04:01:10;;;;;;;;;22.00;22.00;;;;;6.35;84.24;100906.00;5038122;28;45348;-68
2022/12/19 04:03:35;;;;;;;;;17.25;17.25;;;;;6.35;83.76;100897.28;5019927;28;46137;-67
2022/12/19 04:06:02;;;;;;;;;20.50;19.25;;;;;6.39;83.78;100905.03;5037303;28;45346;-67
2022/12/19 04:08:30;;;;;;;;;19.25;19.25;;;;;6.40;84.22;100898.09;5037031;28;45254;-67
2022/12/19 04:11:06;;;;;;;;;24.75;24.00;;;;;6.41;83.22;100902.41;5037272;28;45536;-69
2022/12/19 04:13:41;;;;;;;;;24.00;24.00;;;;;6.40;84.05;100905.94;5018818;28;47202;-68
2022/12/19 04:16:26;;;;;;;;;18.25;18.25;;;;;6.44;83.42;100915.44;5037068;28;45441;-68
2022/12/19 04:18:58;;;;;;;;;17.50;17.50;;;;;6.47;83.70;100911.88;5037172;28;45384;-67
2022/12/19 04:21:32;;;;;;;;;18.00;18.00;;;;;6.49;83.18;100916.22;5037151;28;45392;-67
2022/12/19 04:24:10;;;;;;;;;20.00;20.00;;;;;6.51;83.13;100911.81;5036836;28;45226;-66
2022/12/19 04:26:37;;;;;;;;;16.75;16.75;;;;;6.53;83.46;100923.09;5037624;28;45201;-67
2022/12/19 04:29:06;;;;;;;;;18.25;18.00;;;;;6.53;83.50;100920.50;5038556;28;45909;-67
2022/12/19 04:31:32;;;;;;;;;18.75;18.75;;;;;6.11;82.86;100845.44;5038858;28;45485;-68
2022/12/19 04:33:57;;;;;;;;;18.50;18.50;;;;;6.55;83.71;100915.22;5037600;28;45426;-66
2022/12/19 04:36:25;;;;;;;;;18.00;18.00;;;;;6.56;83.42;100912.59;5036690;28;45266;-66
2022/12/19 04:38:51;;;;;;;;;18.50;18.50;;;;;6.58;83.34;100912.56;5036793;28;45242;-66
2022/12/19 04:41:16;;;;;;;;;16.50;16.50;;;;;6.61;82.86;100912.50;5036611;28;45440;-68
2022/12/19 04:43:42;;;;;;;;;17.50;17.50;;;;;6.62;83.79;100914.22;5036323;28;46161;-68
2022/12/19 04:46:07;;;;;;;;;19.50;18.75;;;;;6.66;82.77;100912.44;5036328;28;45386;-68
2022/12/19 04:48:34;;;;;;;;;19.75;19.00;;;;;6.64;83.02;100911.59;5036821;28;45350;-67
2022/12/19 04:51:00;;;;;;;;;19.75;19.25;;;;;6.66;82.77;100915.03;5018927;28;45522;-69
2022/12/19 04:53:25;;;;;;;;;20.50;19.50;;;;;6.64;82.82;100904.59;5036059;28;45349;-68
2022/12/19 04:55:59;;;;;;;;;17.00;17.00;;;;;6.64;82.70;100909.81;5036580;28;45443;-67
2022/12/19 04:58:24;;;;;;;;;17.25;17.25;;;;;6.69;82.98;100915.84;5018413;28;45351;-67
2022/12/19 05:00:50;;;;;;;;;20.50;20.25;;;;;6.71;82.03;100918.44;5036419;28;45423;-66
2022/12/19 05:03:15;;;;;;;;;20.25;20.25;;;;;6.69;83.82;100905.38;5036266;28;45911;-68
2022/12/19 05:05:40;;;;;;;;;20.00;20.00;;;;;6.72;82.87;100914.94;5018279;28;45344;-68
2022/12/19 05:08:06;;;;;;;;;18.00;18.00;;;;;6.73;83.09;100911.41;5018346;28;51985;-66
2022/12/19 05:10:32;;;;;;;;;20.00;20.00;;;;;6.69;82.88;100904.53;5036421;28;45223;-69
2022/12/19 05:12:57;;;;;;;;;20.25;20.25;;;;;6.76;82.80;100918.31;5036507;28;45569;-68
2022/12/19 05:15:22;;;;;;;;;19.00;19.00;;;;;6.77;82.94;100909.59;5018939;28;45645;-66
2022/12/19 05:17:47;;;;;;;;;20.00;19.25;;;;;6.74;82.25;100902.69;5037788;28;45226;-67
2022/12/19 05:20:13;;;;;;;;;17.75;17.75;;;;;6.81;82.69;100914.75;5039020;28;45316;-67
2022/12/19 05:22:38;;;;;;;;;19.50;19.50;;;;;6.82;82.76;100911.25;5036618;28;46091;-68
2022/12/19 05:25:04;;;;;;;;;18.25;18.25;;;;;6.80;83.24;100907.78;5018219;28;52962;-67
2022/12/19 05:27:29;;;;;;;;;18.00;18.00;;;;;6.80;82.36;100904.31;5036479;28;45379;-67
2022/12/19 05:29:55;;;;;;;;;17.25;16.50;;;;;6.86;83.31;100909.41;5036474;28;45579;-67
2022/12/19 05:32:21;;;;;;;;;15.50;15.50;;;;;6.84;82.61;100904.22;5018070;28;55460;-68
2022/12/19 05:34:46;;;;;;;;;20.75;20.75;;;;;6.83;82.77;100907.75;5037484;28;45332;-68
2022/12/19 05:37:11;;;;;;;;;18.25;18.25;;;;;6.89;83.34;100904.13;5038880;28;45384;-67
2022/12/19 05:39:37;;;;;;;;;16.75;16.75;;;;;6.85;82.90;100911.19;5039095;28;45360;-68
2022/12/19 05:42:03;;;;;;;;;18.00;18.00;;;;;6.83;83.18;100909.47;5036247;28;45516;-68
2022/12/19 05:44:28;;;;;;;;;20.75;20.75;;;;;6.91;83.29;100925.03;5036153;28;45344;-68
2022/12/19 05:46:53;;;;;;;;;17.50;17.50;;;;;6.92;82.54;100932.84;5036120;28;45411;-69
2022/12/19 05:49:19;;;;;;;;;16.00;16.00;;;;;6.85;83.08;100903.34;5036685;28;45303;-68
2022/12/19 05:51:46;;;;;;;;;15.75;15.75;;;;;6.96;82.33;100918.84;5036339;28;46019;-69
2022/12/19 05:54:11;;;;;;;;;16.00;15.00;;;;;6.97;83.05;100911.84;5036822;28;45274;-68
2022/12/19 05:56:36;;;;;;;;;19.25;19.25;;;;;6.87;83.19;100904.16;5036637;28;45229;-68
2022/12/19 05:59:02;;;;;;;;;13.75;13.75;;;;;6.97;83.65;100909.22;5037251;28;45175;-69
2022/12/19 06:01:27;;;;;;;;;15.00;15.00;;;;;7.02;83.17;100917.84;5039827;28;45283;-70
2022/12/19 06:03:54;;;;;;;;;18.75;18.75;;;;;7.01;82.76;100905.66;5036891;28;45483;-69
2022/12/19 06:06:25;;;;;;;;;17.00;16.50;;;;;7.06;82.87;100923.88;5019268;28;45344;-69
2022/12/19 06:08:54;;;;;;;;;14.75;14.75;;;;;7.05;83.23;100920.38;5035208;28;45523;-67
2022/12/19 06:11:20;;;;;;;;;20.75;20.75;;;;;7.08;83.49;100930.78;5035812;28;45417;-70
2022/12/19 06:13:45;;;;;;;;;18.25;18.25;;;;;7.08;82.73;100928.16;5034569;28;45322;-68
2022/12/19 06:16:14;;;;;;;;;21.00;20.00;;;;;7.09;83.57;100916.81;5039412;28;45293;-69
2022/12/19 06:18:40;;;;;;;;;18.50;18.50;;;;;7.12;83.38;100914.13;5035939;28;45255;-67
2022/12/19 06:21:10;;;;;;;;;17.50;17.25;;;;;7.12;82.87;100921.13;5036432;28;45559;-67
2022/12/19 06:23:36;;;;;;;;;18.00;18.00;;;;;7.12;82.84;100919.38;5021760;28;45578;-68
2022/12/19 06:26:03;;;;;;;;;18.50;18.50;;;;;7.15;83.02;100921.06;5036441;28;45340;-68
2022/12/19 06:28:30;;;;;;;;;18.75;18.50;;;;;7.14;82.87;100907.13;5035870;28;45393;-68
2022/12/19 06:30:57;;;;;;;;;24.25;24.25;;;;;7.19;82.70;100908.78;5034315;28;45921;-66
2022/12/19 06:33:24;;;;;;;;;18.75;18.75;;;;;7.21;83.34;100907.88;5035309;28;45266;-65
2022/12/19 06:36:07;;;;;;;;;17.50;17.50;;;;;7.19;82.74;100901.81;5034749;28;45320;-66
2022/12/19 06:38:33;;;;;;;;;17.50;17.50;;;;;7.18;82.71;100900.09;5035542;28;45373;-68
2022/12/19 06:43:43;;;;;;;;;18.00;18.00;;;;;7.20;82.22;100893.06;5035599;28;45365;-68
2022/12/19 06:46:09;;;;;;;;;17.75;16.25;;;;;7.26;82.22;100897.28;5035308;28;45235;-68
2022/12/19 06:48:34;;;;;;;;;21.75;21.25;;;;;7.22;82.67;100893.00;5024854;28;45237;-66
2022/12/19 06:51:00;;;;;;;;;19.50;19.25;;;;;7.28;82.98;100896.38;5015003;28;45573;-66
2022/12/19 06:53:25;;;;;;;;;17.75;17.75;;;;;7.28;82.60;100895.50;5014877;28;45236;-67
2022/12/19 06:55:54;;;;;;;;;15.75;15.75;;;;;7.32;82.62;100910.22;5025627;28;45208;-69
2022/12/19 06:58:19;;;;;;;;;19.25;18.00;;;;;7.32;82.75;100899.78;5035188;28;45543;-68
2022/12/19 07:00:45;;;;;;;;;15.75;15.75;;;;;7.34;82.05;100897.13;5035064;28;46013;-68
2022/12/19 07:03:14;;;;;;;;;16.75;16.75;;;;;7.30;82.25;100885.84;5035704;28;45363;-66
2022/12/19 07:05:40;;;;;;;;;16.50;16.50;;;;;7.35;82.41;100894.47;5015627;28;45276;-66
2022/12/19 07:08:08;;;;;;;;;21.00;21.00;;;;;7.36;82.55;100896.19;5034588;28;45282;-67
2022/12/19 07:10:33;;;;;;;;;15.50;15.50;;;;;7.39;81.93;100906.59;5016029;28;47187;-67
2022/12/19 07:12:58;;;;;;;;;13.75;13.75;;;;;7.37;82.20;100889.22;5022321;28;54476;-68
2022/12/19 07:15:24;;;;;;;;;14.25;14.25;;;;;7.42;82.14;100898.72;5035038;28;45455;-68
2022/12/19 07:17:50;;;;;;;;;11.75;11.25;;;;;7.43;81.90;100897.81;5017013;28;45486;-67
2022/12/19 07:20:16;;;;;;;;;17.75;16.75;;;;;7.41;82.35;100899.56;5034082;28;45656;-66
2022/12/19 07:22:43;;;;;;;;;16.50;16.50;;;;;7.48;82.17;100900.31;5018110;28;45478;-66
2022/12/19 07:25:09;;;;;;;;;14.25;14.25;;;;;7.40;81.91;100890.00;5021276;28;45356;-67
2022/12/19 07:27:35;;;;;;;;;19.00;18.75;;;;;7.45;81.71;100918.69;5014596;28;45224;-68
2022/12/19 07:30:01;;;;;;;;;14.25;14.25;;;;;7.51;82.21;100913.31;5017686;28;46235;-69
2022/12/19 07:32:26;;;;;;;;;20.00;18.50;;;;;7.51;81.49;100913.31;5018443;28;45464;-69
2022/12/19 07:34:53;;;;;;;;;23.00;23.00;;;;;7.51;81.53;100907.25;5039144;28;45412;-69
2022/12/19 07:37:18;;;;;;;;;15.25;15.25;;;;;7.48;82.00;100910.78;5035021;28;45449;-68
2022/12/19 07:39:43;;;;;;;;;18.00;18.00;;;;;7.49;81.43;100915.13;5034653;28;45376;-69
2022/12/19 07:42:09;;;;;;;;;18.25;17.75;;;;;7.48;82.36;100923.03;5033596;28;45523;-66
2022/12/19 07:44:34;;;;;;;;;14.00;14.00;;;;;7.40;82.20;100905.69;5033762;28;45411;-67
2022/12/19 07:47:00;;;;;;;;;18.25;18.25;;;;;7.45;81.90;100908.22;5017534;28;47128;-68
2022/12/19 07:49:25;;;;;;;;;13.00;13.00;;;;;7.38;81.77;100914.50;5022209;28;46164;-67
2022/12/19 07:51:50;;;;;;;;;14.75;14.75;;;;;7.41;81.33;100917.88;5038357;28;45431;-69
2022/12/19 07:54:16;;;;;;;;;45.00;39.00;;;;;7.42;81.75;100921.38;5044084;28;45457;-68
2022/12/19 07:56:41;;;;;;;;;18.50;18.50;;;;;7.41;81.47;100928.34;5015799;28;45337;-69
2022/12/19 07:59:06;;;;;;;;;22.50;22.50;;;;;7.42;81.76;100934.47;5033869;28;45493;-68
2022/12/19 08:01:32;;;;;;;;;19.00;19.00;;;;;7.45;81.56;100937.91;5023941;28;56959;-69
2022/12/19 08:03:57;;;;;;;;;20.50;20.50;;;;;7.47;81.65;100935.22;5020221;28;45488;-68
2022/12/19 08:06:23;;;;;;;;;54.50;47.00;;;;;7.47;81.31;100940.47;5014403;28;45339;-69
2022/12/19 08:08:49;;;;;;;;;29.75;29.75;;;;;7.51;81.92;100946.50;5014188;28;45562;-66
2022/12/19 08:11:28;;;;;;;;;22.00;22.00;;;;;7.48;82.04;100936.09;5031874;28;45349;-76
2022/12/19 08:13:54;;;;;;;;;18.25;18.25;;;;;7.43;81.31;100931.84;5032943;28;45392;-67
2022/12/19 08:16:20;;;;;;;;;21.00;21.00;;;;;7.55;81.92;100943.78;5034308;28;45363;-69
2022/12/19 08:18:46;;;;;;;;;24.00;24.00;;;;;7.56;81.59;100942.88;5035386;28;46078;-67
2022/12/19 08:21:12;;;;;;;;;18.25;18.25;;;;;7.59;81.15;100944.59;5035325;28;45340;-68
2022/12/19 08:23:38;;;;;;;;;16.75;16.75;;;;;7.61;80.70;100940.19;5035286;28;45510;-68
2022/12/19 08:26:07;;;;;;;;;20.50;20.00;;;;;7.62;81.47;100938.41;5037370;28;45593;-75
2022/12/19 08:28:33;;;;;;;;;18.75;18.75;;;;;7.64;81.00;100941.84;5036371;28;45391;-71
2022/12/19 08:31:05;;;;;;;;;23.25;23.25;;;;;7.66;80.54;100935.69;5036857;28;45406;-72
2022/12/19 08:33:31;;;;;;;;;15.25;15.25;;;;;7.65;80.46;100941.84;5037270;28;45232;-71
2022/12/19 08:35:56;;;;;;;;;16.25;16.25;;;;;7.65;80.76;100928.75;5036896;28;45312;-72
2022/12/19 08:38:21;;;;;;;;;17.50;16.25;;;;;7.71;80.66;100943.44;5035113;28;47117;-71
2022/12/19 08:40:53;;;;;;;;;22.50;22.50;;;;;7.73;81.10;100934.66;5036655;28;45423;-70
2022/12/19 08:43:20;;;;;;;;;14.00;14.00;;;;;7.78;80.86;100944.16;5036931;28;45527;-70
2022/12/19 08:45:48;;;;;;;;;15.75;15.75;;;;;7.81;80.59;100946.72;5036872;28;45376;-71
2022/12/19 08:48:14;;;;;;;;;14.50;13.00;;;;;7.81;80.48;100938.88;5036562;28;45311;-71
2022/12/19 08:50:39;;;;;;;;;16.25;16.25;;;;;7.84;79.87;100944.88;5036970;28;45262;-71
2022/12/19 08:53:05;;;;;;;;;15.50;15.50;;;;;7.85;80.02;100951.84;5036813;28;45406;-72
2022/12/19 08:55:30;;;;;;;;;16.00;16.00;;;;;7.87;80.27;100946.59;5036825;28;45322;-73
2022/12/19 08:57:55;;;;;;;;;16.50;16.50;;;;;7.88;79.68;100946.53;5036496;28;48291;-72
2022/12/19 09:00:21;;;;;;;;;17.67;17.33;;;;;7.85;80.08;100941.34;5037561;28;45325;-71
2022/12/19 09:02:46;;;;;;;;;14.25;14.25;;;;;7.90;79.52;100946.50;5036939;28;45321;-73
2022/12/19 09:05:12;;;;;;;;;16.25;16.25;;;;;7.87;79.96;100928.25;5035584;28;45268;-72
2022/12/19 09:07:38;;;;;;;;;14.25;14.25;;;;;7.95;79.71;100939.41;5037275;28;46160;-71
2022/12/19 09:10:04;;;;;;;;;14.50;14.50;;;;;7.93;78.99;100921.97;5035519;28;45217;-71
2022/12/19 09:12:29;;;;;;;;;13.00;13.00;;;;;8.00;78.94;100937.53;5036745;28;45329;-72
2022/12/19 09:14:55;;;;;;;;;15.50;15.50;;;;;8.02;79.37;100943.59;5038052;28;45209;-73
2022/12/19 09:17:20;;;;;;;;;23.00;23.00;;;;;8.05;79.22;100940.06;5040634;28;46532;-70
2022/12/19 09:19:46;;;;;;;;;16.75;16.25;;;;;8.09;78.75;100946.06;5039991;28;45320;-72
2022/12/19 09:22:11;;;;;;;;;19.25;19.00;;;;;8.10;78.92;100943.44;5037519;28;50900;-72
2022/12/19 09:24:36;;;;;;;;;18.25;18.00;;;;;8.12;78.80;100943.38;5036497;28;45368;-72
2022/12/19 09:27:01;;;;;;;;;15.50;15.50;;;;;8.13;78.64;100948.59;5036265;28;45459;-71
2022/12/19 09:29:27;;;;;;;;;16.50;16.50;;;;;8.06;78.37;100928.69;5036794;28;45414;-73
2022/12/19 09:31:52;;;;;;;;;15.25;15.25;;;;;8.12;78.48;100941.63;5036281;28;45415;-71
2022/12/19 09:34:17;;;;;;;;;18.75;18.75;;;;;8.18;78.42;100951.09;5036081;28;45268;-72
2022/12/19 09:36:43;;;;;;;;;16.00;16.00;;;;;8.19;78.50;100955.44;5035943;28;45479;-72
2022/12/19 09:39:11;;;;;;;;;14.50;14.50;;;;;8.16;78.01;100956.38;5035880;28;45382;-73
2022/12/19 09:41:55;;;;;;;;;16.00;16.00;;;;;8.21;78.11;100968.50;5036346;28;45348;-71
2022/12/19 09:44:36;;;;;;;;;15.75;15.75;;;;;8.21;78.03;100961.50;5035564;28;45446;-72
2022/12/19 09:47:09;;;;;;;;;20.00;19.50;;;;;8.23;77.99;100970.19;5034911;28;45400;-71
2022/12/19 09:49:42;;;;;;;;;14.25;14.25;;;;;8.25;77.97;100972.78;5034366;28;45579;-72
2022/12/19 09:52:13;;;;;;;;;21.50;21.50;;;;;8.27;77.72;100981.47;5034569;28;45383;-72
2022/12/19 09:54:50;;;;;;;;;21.00;21.00;;;;;8.29;77.40;100983.13;5037737;28;45415;-72
2022/12/19 09:57:31;;;;;;;;;13.00;13.00;;;;;8.32;77.64;100977.81;5036100;28;45404;-71
2022/12/19 10:00:04;;;;;;;;;16.00;16.00;;;;;8.30;77.43;100963.88;5036024;28;45495;-75
2022/12/19 10:02:51;;;;;;;;;18.00;18.00;;;;;8.36;77.28;100969.88;5036257;28;45358;-72
2022/12/19 10:05:22;;;;;;;;;16.50;16.50;;;;;8.41;77.12;100970.63;5018095;28;45370;-72
2022/12/19 10:07:47;;;;;;;;;13.50;13.50;;;;;8.44;77.08;100976.66;5035902;28;45362;-72
2022/12/19 10:10:26;;;;;;;;;16.25;16.25;;;;;8.49;77.01;100973.97;5035656;28;45320;-71
2022/12/19 10:12:59;;;;;;;;;18.25;18.25;;;;;8.50;77.08;100959.97;5035609;28;45291;-72
2022/12/19 10:15:35;;;;;;;;;15.50;15.50;;;;;8.54;76.92;100958.13;5035915;28;45190;-71
2022/12/19 10:18:11;;;;;;;;;21.00;21.00;;;;;8.52;77.00;100941.56;5035684;28;45682;-73
2022/12/19 10:20:43;;;;;;;;;27.50;27.25;;;;;8.60;76.82;100956.22;5036205;28;45369;-71
2022/12/19 10:23:30;;;;;;;;;22.25;21.75;;;;;8.66;76.40;100951.69;5039575;28;45360;-71
2022/12/19 10:26:08;;;;;;;;;23.75;23.75;;;;;8.71;76.24;100953.28;5036478;28;45364;-72
2022/12/19 10:29:04;;;;;;;;;17.50;17.25;;;;;8.78;76.32;100951.38;5035249;28;46425;-72
2022/12/19 10:31:44;;;;;;;;;14.00;14.00;;;;;8.81;75.74;100942.53;5035754;28;45332;-72
2022/12/19 10:34:19;;;;;;;;;19.75;19.75;;;;;8.88;75.88;100944.97;5035605;28;45328;-73
2022/12/19 10:36:56;;;;;;;;;17.25;17.25;;;;;8.94;75.61;100956.19;5035028;28;45187;-72
2022/12/19 10:39:43;;;;;;;;;15.25;15.25;;;;;8.97;74.71;100940.38;5035951;28;46459;-72
2022/12/19 10:42:35;;;;;;;;;15.25;15.25;;;;;9.01;75.28;100945.50;5035642;28;45547;-71
2022/12/19 10:45:08;;;;;;;;;19.00;19.00;;;;;9.08;75.47;100934.84;5019527;28;45268;-72
2022/12/19 10:47:34;;;;;;;;;15.50;15.50;;;;;9.10;74.81;100935.66;5035422;28;45409;-71
2022/12/19 10:49:59;;;;;;;;;18.50;17.75;;;;;9.05;74.78;100925.28;5034614;28;46150;-73
2022/12/19 10:52:45;;;;;;;;;15.50;15.50;;;;;9.19;73.70;100938.00;5035660;28;45225;-72
2022/12/19 10:55:36;;;;;;;;;22.75;20.75;;;;;9.21;74.12;100933.59;5035020;28;45357;-72
2022/12/19 10:58:31;;;;;;;;;18.25;18.25;;;;;9.25;74.01;100936.97;5035365;28;45389;-74
2022/12/19 11:01:04;;;;;;;;;21.75;21.75;;;;;9.25;73.94;100934.34;5035666;28;45314;-72
2022/12/19 11:03:32;;;;;;;;;21.75;21.75;;;;;9.26;74.07;100936.94;5034923;28;45503;-73
2022/12/19 11:05:59;;;;;;;;;19.00;19.00;;;;;9.23;73.64;100923.91;5036502;28;45400;-72
2022/12/19 11:08:30;;;;;;;;;22.75;22.75;;;;;9.29;73.67;100928.09;5036605;28;45364;-73
2022/12/19 11:11:10;;;;;;;;;16.50;16.25;;;;;9.30;73.65;100917.56;5036252;28;45452;-73
2022/12/19 11:13:35;;;;;;;;;25.25;25.25;;;;;9.33;74.18;100919.22;5016853;28;45391;-73
2022/12/19 11:16:05;;;;;;;;;19.00;19.00;;;;;9.34;73.51;100923.56;5034911;28;45256;-71
2022/12/19 11:18:56;;;;;;;;;19.00;19.00;;;;;9.36;73.51;100921.75;5017536;28;45984;-73
2022/12/19 11:21:29;;;;;;;;;15.00;15.00;;;;;9.39;72.92;100919.03;5015430;28;47112;-73
2022/12/19 11:23:58;;;;;;;;;15.00;15.00;;;;;9.41;73.04;100916.38;5035274;28;45289;-72
2022/12/19 11:26:26;;;;;;;;;19.75;19.75;;;;;9.42;72.93;100929.44;5018794;28;45294;-71
2022/12/19 11:28:52;;;;;;;;;24.25;24.00;;;;;9.43;72.89;100915.41;5035597;28;45466;-72
2022/12/19 11:31:25;;;;;;;;;15.50;15.50;;;;;9.47;72.66;100911.78;5016450;28;47039;-73
2022/12/19 11:34:00;;;;;;;;;20.00;18.25;;;;;9.51;72.87;100909.94;5034662;28;45452;-72
2022/12/19 11:36:43;;;;;;;;;22.25;17.75;;;;;9.56;72.35;100921.16;5034852;28;45312;-73